Time;durP1;ratioP1;P1;durP2;ratioP2;P2;SDS_P1;SDS_P2;PMS_P1;PMS_P2;Temp;Humidity;BMP_temperature;BMP_pressure;BME280_temperature;BME280_humidity;BME280_pressure;Samples;Min_cycle;Max_cycle;Signal;HPM_P1;HPM_P2
2024/02/02 00:00:15;;;;;;;31.55;5.20;;;5.60;99.90;;;;;;4935221;29;20032;-75
2024/02/02 00:02:40;;;;;;;32.97;4.75;;;5.60;99.90;;;;;;4952283;28;20020;-71
2024/02/02 00:05:07;;;;;;;30.00;4.82;;;5.60;99.90;;;;;;4951128;28;20107;-74
2024/02/02 00:07:33;;;;;;;38.50;4.93;;;5.60;99.90;;;;;;4934859;29;20099;-76
2024/02/02 00:09:59;;;;;;;40.83;5.90;;;5.60;99.90;;;;;;4952489;28;20509;-74
2024/02/02 00:12:27;;;;;;;31.77;4.93;;;5.60;99.90;;;;;;4952101;29;20481;-73
2024/02/02 00:14:53;;;;;;;28.25;5.07;;;5.60;99.90;;;;;;4935026;29;20788;-72
2024/02/02 00:17:19;;;;;;;37.95;4.72;;;5.60;99.90;;;;;;4934976;28;20112;-76
2024/02/02 00:19:45;;;;;;;29.95;4.97;;;5.60;99.90;;;;;;4950844;28;20043;-74
2024/02/02 00:22:11;;;;;;;36.42;5.45;;;5.60;99.90;;;;;;4952213;28;20086;-74
2024/02/02 00:24:36;;;;;;;28.52;4.80;;;5.60;99.90;;;;;;4955450;28;20437;-74
2024/02/02 00:27:02;;;;;;;35.80;4.88;;;5.60;99.90;;;;;;4955640;29;20042;-73
2024/02/02 00:29:28;;;;;;;43.47;5.75;;;5.60;99.90;;;;;;4938632;28;20124;-74
2024/02/02 00:31:53;;;;;;;36.15;5.30;;;5.60;99.90;;;;;;4955479;28;20019;-72
2024/02/02 00:34:19;;;;;;;45.38;5.70;;;5.60;99.90;;;;;;4954504;28;20071;-76
2024/02/02 00:36:45;;;;;;;42.17;6.20;;;5.60;99.90;;;;;;4955223;28;20535;-74
2024/02/02 00:39:10;;;;;;;30.85;5.53;;;5.60;99.90;;;;;;4953773;28;20043;-76
2024/02/02 00:41:36;;;;;;;37.45;5.90;;;5.70;99.90;;;;;;4955146;29;20023;-74
2024/02/02 00:44:03;;;;;;;34.25;5.60;;;5.60;99.90;;;;;;4937388;28;20056;-73
2024/02/02 00:46:29;;;;;;;32.40;6.43;;;5.70;99.90;;;;;;4937074;29;20035;-76
2024/02/02 00:48:54;;;;;;;36.72;6.53;;;5.70;99.90;;;;;;4954975;28;20062;-74
2024/02/02 00:51:20;;;;;;;39.28;7.45;;;5.70;99.90;;;;;;4955264;28;20071;-71
2024/02/02 00:53:45;;;;;;;43.08;6.47;;;5.80;99.90;;;;;;4954797;28;20075;-72
2024/02/02 00:56:11;;;;;;;39.20;6.60;;;5.80;99.90;;;;;;4953765;28;20551;-74
2024/02/02 00:58:36;;;;;;;40.28;7.90;;;5.70;99.90;;;;;;4935754;29;20031;-72
2024/02/02 01:01:02;;;;;;;39.90;6.70;;;5.70;99.90;;;;;;4937760;28;20023;-75
2024/02/02 01:03:28;;;;;;;34.78;7.80;;;5.70;99.90;;;;;;4938005;29;20077;-73
2024/02/02 01:05:54;;;;;;;39.85;7.88;;;5.80;99.90;;;;;;4954714;28;20066;-75
2024/02/02 01:08:20;;;;;;;49.08;8.05;;;5.70;99.90;;;;;;4936074;29;20032;-74
2024/02/02 01:10:45;;;;;;;40.63;7.22;;;5.70;99.90;;;;;;4954891;28;20055;-73
2024/02/02 01:13:11;;;;;;;44.65;8.70;;;5.70;99.90;;;;;;4937817;28;20058;-74
2024/02/02 01:15:36;;;;;;;31.98;7.60;;;5.70;99.90;;;;;;4937156;29;20027;-73
2024/02/02 01:18:02;;;;;;;50.83;8.13;;;5.80;99.90;;;;;;4954833;28;20373;-73
2024/02/02 01:20:28;;;;;;;43.97;7.35;;;5.80;99.90;;;;;;4954451;28;20050;-74
2024/02/02 01:22:54;;;;;;;46.45;9.35;;;5.80;99.90;;;;;;4936954;28;20067;-74
2024/02/02 01:25:19;;;;;;;41.60;8.73;;;5.70;99.90;;;;;;4953266;28;20032;-74
2024/02/02 01:27:45;;;;;;;36.40;8.27;;;5.90;99.90;;;;;;4954050;28;20395;-74
2024/02/02 01:30:14;;;;;;;35.25;7.72;;;5.80;99.90;;;;;;4954272;28;20023;-75
2024/02/02 01:32:39;;;;;;;38.53;8.25;;;5.80;99.90;;;;;;4954268;28;20027;-74
2024/02/02 01:35:05;;;;;;;49.88;9.23;;;5.90;99.90;;;;;;4953719;28;20035;-73
2024/02/02 01:37:31;;;;;;;41.88;9.45;;;5.80;99.90;;;;;;4954336;28;20024;-75
2024/02/02 01:39:57;;;;;;;47.80;9.20;;;5.70;99.90;;;;;;4954523;28;20078;-75
2024/02/02 01:42:22;;;;;;;36.08;7.75;;;5.70;99.90;;;;;;4936904;29;20406;-73
2024/02/02 01:44:49;;;;;;;37.17;8.23;;;5.80;99.90;;;;;;4954071;29;20040;-74
2024/02/02 01:47:15;;;;;;;50.25;8.07;;;5.90;99.90;;;;;;4936189;29;20042;-74
2024/02/02 01:49:40;;;;;;;42.92;8.88;;;5.70;99.90;;;;;;4942213;29;20076;-74
2024/02/02 01:52:07;;;;;;;49.08;8.38;;;5.70;99.90;;;;;;4954167;29;20131;-74
2024/02/02 01:54:33;;;;;;;39.97;9.05;;;5.70;99.90;;;;;;4954264;28;20020;-76
2024/02/02 01:56:59;;;;;;;40.35;8.70;;;5.70;99.90;;;;;;4936634;29;20030;-76
2024/02/02 01:59:25;;;;;;;41.97;8.63;;;5.80;99.90;;;;;;4953986;28;20071;-77
2024/02/02 02:01:50;;;;;;;44.88;9.15;;;5.80;99.90;;;;;;4935560;29;20040;-76
2024/02/02 02:04:16;;;;;;;35.53;7.82;;;5.80;99.90;;;;;;4954082;28;20083;-78
2024/02/02 02:06:42;;;;;;;39.28;8.85;;;5.90;99.90;;;;;;4936595;29;20050;-77
2024/02/02 02:09:11;;;;;;;42.78;8.88;;;5.70;99.90;;;;;;4936140;28;20079;-75
2024/02/02 02:11:38;;;;;;;43.80;9.32;;;5.80;99.90;;;;;;4953505;29;20019;-78
2024/02/02 02:14:03;;;;;;;39.78;9.13;;;5.80;99.90;;;;;;4953335;28;20027;-77
2024/02/02 02:16:29;;;;;;;41.85;9.95;;;5.80;99.90;;;;;;4936344;29;20067;-75
2024/02/02 02:18:55;;;;;;;33.97;9.68;;;5.80;99.90;;;;;;4953294;28;20370;-75
2024/02/02 02:21:27;;;;;;;29.73;8.63;;;5.80;99.90;;;;;;4935999;29;20024;-76
2024/02/02 02:23:53;;;;;;;47.90;10.52;;;5.80;99.90;;;;;;4935905;29;20062;-74
2024/02/02 02:26:20;;;;;;;45.67;10.75;;;5.80;99.90;;;;;;4952206;28;20939;-77
2024/02/02 02:28:47;;;;;;;37.17;10.25;;;5.80;99.90;;;;;;4953825;28;20030;-76
2024/02/02 02:31:16;;;;;;;40.55;10.38;;;5.80;99.90;;;;;;4953001;28;20030;-74
2024/02/02 02:33:43;;;;;;;50.80;10.57;;;5.80;99.90;;;;;;4953346;28;20115;-75
2024/02/02 02:36:09;;;;;;;44.17;10.07;;;5.80;99.90;;;;;;4953049;28;20042;-76
2024/02/02 02:38:35;;;;;;;42.92;10.77;;;5.80;99.90;;;;;;4933698;29;20059;-76
2024/02/02 02:41:01;;;;;;;53.20;10.85;;;5.80;99.90;;;;;;4935936;28;20043;-77
2024/02/02 02:43:27;;;;;;;44.95;12.00;;;5.80;99.90;;;;;;4935973;29;20023;-77
2024/02/02 02:45:54;;;;;;;46.33;11.80;;;5.90;99.90;;;;;;4952195;28;20038;-74
2024/02/02 02:48:20;;;;;;;44.55;11.77;;;5.80;99.90;;;;;;4934915;28;20059;-75
2024/02/02 02:50:45;;;;;;;51.58;11.85;;;5.80;99.90;;;;;;4952941;28;20470;-77
2024/02/02 02:53:11;;;;;;;51.50;12.15;;;5.90;99.90;;;;;;4935312;29;20030;-75
2024/02/02 02:55:36;;;;;;;51.53;12.10;;;5.80;99.90;;;;;;4953069;28;20031;-77
2024/02/02 02:58:02;;;;;;;51.50;12.32;;;5.80;99.90;;;;;;4935981;29;20043;-74
2024/02/02 03:00:29;;;;;;;44.55;12.57;;;5.80;99.90;;;;;;4935789;29;20055;-73
2024/02/02 03:02:55;;;;;;;48.90;13.00;;;5.80;99.90;;;;;;4952890;28;20031;-75
2024/02/02 03:05:21;;;;;;;45.40;13.05;;;5.90;99.90;;;;;;4935738;28;20046;-77
2024/02/02 03:07:47;;;;;;;61.95;13.85;;;5.90;99.90;;;;;;4952589;28;20034;-76
2024/02/02 03:10:12;;;;;;;49.00;12.88;;;5.80;99.90;;;;;;4931845;29;20086;-77
2024/02/02 03:12:38;;;;;;;45.45;12.70;;;5.80;99.90;;;;;;4952126;29;20040;-77
2024/02/02 03:15:04;;;;;;;51.22;13.00;;;5.80;99.90;;;;;;4953013;28;20046;-79
2024/02/02 03:17:30;;;;;;;49.88;13.77;;;5.80;99.90;;;;;;4952953;28;20031;-77
2024/02/02 03:19:55;;;;;;;44.38;14.20;;;5.90;99.90;;;;;;4935034;28;20051;-76
2024/02/02 03:22:21;;;;;;;50.45;13.63;;;5.90;99.90;;;;;;4952565;28;20065;-77
2024/02/02 03:24:46;;;;;;;49.95;14.85;;;5.80;99.90;;;;;;4953137;28;20032;-76
2024/02/02 03:27:12;;;;;;;49.53;14.65;;;5.80;99.90;;;;;;4952821;28;20023;-76
2024/02/02 03:29:37;;;;;;;54.08;14.55;;;5.90;99.90;;;;;;4935643;29;20023;-78
2024/02/02 03:32:03;;;;;;;49.13;13.13;;;5.80;99.90;;;;;;4935682;29;20668;-78
2024/02/02 03:34:29;;;;;;;54.53;13.65;;;5.90;99.90;;;;;;4935259;29;20032;-75
2024/02/02 03:36:54;;;;;;;48.63;14.20;;;5.90;99.90;;;;;;4935322;28;20020;-76
2024/02/02 03:39:20;;;;;;;44.70;14.63;;;5.90;99.90;;;;;;4952844;28;20127;-78
2024/02/02 03:41:46;;;;;;;43.28;13.63;;;5.90;99.90;;;;;;4952436;28;20035;-76
2024/02/02 03:44:11;;;;;;;55.75;14.35;;;5.90;99.90;;;;;;4935717;28;20027;-76
2024/02/02 03:46:37;;;;;;;45.70;12.70;;;5.90;99.90;;;;;;4952923;29;20027;-77
2024/02/02 03:49:02;;;;;;;44.05;14.38;;;5.90;99.90;;;;;;4935292;29;20116;-75
2024/02/02 03:51:28;;;;;;;42.47;12.45;;;5.90;99.90;;;;;;4935646;29;20035;-74
2024/02/02 03:53:54;;;;;;;48.38;11.82;;;5.80;99.90;;;;;;4932389;29;20035;-73
2024/02/02 03:56:19;;;;;;;46.72;13.25;;;5.90;99.90;;;;;;4934001;29;20100;-77
2024/02/02 03:58:45;;;;;;;48.00;13.25;;;5.90;99.90;;;;;;4955854;28;20051;-78
2024/02/02 04:01:10;;;;;;;47.45;13.85;;;5.90;99.90;;;;;;4954852;28;20019;-77
2024/02/02 04:03:36;;;;;;;46.33;12.20;;;6.00;99.90;;;;;;4938746;29;20027;-77
2024/02/02 04:06:02;;;;;;;45.30;12.85;;;5.90;99.90;;;;;;4956312;28;20107;-75
2024/02/02 04:08:28;;;;;;;37.97;12.70;;;5.90;99.90;;;;;;4954901;28;20035;-76
2024/02/02 04:10:54;;;;;;;55.67;13.80;;;5.80;99.90;;;;;;4956074;28;20026;-74
2024/02/02 04:13:19;;;;;;;43.22;12.65;;;5.90;99.90;;;;;;4956243;28;20016;-76
2024/02/02 04:15:45;;;;;;;50.40;12.10;;;5.80;99.90;;;;;;4955878;29;20091;-74
2024/02/02 04:18:10;;;;;;;46.85;13.00;;;5.80;99.90;;;;;;4938558;29;20476;-76
2024/02/02 04:20:36;;;;;;;42.17;11.13;;;5.90;99.90;;;;;;4938489;29;20035;-74
2024/02/02 04:23:02;;;;;;;39.88;12.60;;;5.90;99.90;;;;;;4955741;28;20098;-74
2024/02/02 04:25:28;;;;;;;49.67;13.82;;;5.90;99.90;;;;;;4954725;29;20067;-77
2024/02/02 04:27:53;;;;;;;51.55;12.85;;;5.90;99.90;;;;;;4938534;29;20094;-75
2024/02/02 04:30:19;;;;;;;46.13;12.68;;;5.80;99.90;;;;;;4955674;28;20019;-76
2024/02/02 04:32:45;;;;;;;56.00;13.00;;;5.80;99.90;;;;;;4955290;28;20046;-76
2024/02/02 04:35:10;;;;;;;52.78;11.23;;;5.90;99.90;;;;;;4938461;29;20035;-74
2024/02/02 04:37:38;;;;;;;42.30;12.15;;;5.90;99.90;;;;;;4937993;28;20027;-75
2024/02/02 04:40:05;;;;;;;40.83;11.43;;;5.90;99.90;;;;;;4955490;28;20047;-77
2024/02/02 04:42:30;;;;;;;34.83;10.73;;;5.90;99.90;;;;;;4938178;28;20507;-77
2024/02/02 04:44:56;;;;;;;34.92;10.90;;;5.90;99.90;;;;;;4955453;29;20024;-75
2024/02/02 04:47:22;;;;;;;47.10;12.43;;;6.00;99.90;;;;;;4955460;28;20083;-75
2024/02/02 04:49:48;;;;;;;46.25;11.45;;;5.90;99.90;;;;;;4937752;29;20027;-78
2024/02/02 04:52:14;;;;;;;40.10;11.45;;;5.80;99.90;;;;;;4937475;29;20019;-77
2024/02/02 04:54:39;;;;;;;49.33;11.38;;;5.90;99.90;;;;;;4935063;28;20038;-73
2024/02/02 04:57:05;;;;;;;39.17;11.45;;;5.90;99.90;;;;;;4954524;28;20035;-78
2024/02/02 04:59:30;;;;;;;43.47;12.10;;;5.90;99.90;;;;;;4936048;28;20054;-75
2024/02/02 05:01:57;;;;;;;34.90;11.02;;;5.90;99.90;;;;;;4935873;29;20043;-74
2024/02/02 05:04:22;;;;;;;51.75;11.38;;;5.90;99.90;;;;;;4954578;28;20737;-77
2024/02/02 05:06:48;;;;;;;35.88;11.15;;;6.00;99.90;;;;;;4937073;28;20029;-75
2024/02/02 05:09:13;;;;;;;50.67;11.65;;;5.90;99.90;;;;;;4953201;28;20048;-76
2024/02/02 05:11:39;;;;;;;44.38;12.65;;;5.90;99.90;;;;;;4937211;29;20019;-77
2024/02/02 05:14:04;;;;;;;45.90;12.45;;;5.90;99.90;;;;;;4954683;28;20019;-77
2024/02/02 05:16:30;;;;;;;38.33;11.27;;;5.90;99.90;;;;;;4955061;28;20098;-76
2024/02/02 05:18:55;;;;;;;42.58;12.70;;;6.00;99.90;;;;;;4936725;29;20384;-76
2024/02/02 05:21:21;;;;;;;35.65;11.80;;;5.90;99.90;;;;;;4937869;28;20050;-77
2024/02/02 05:23:47;;;;;;;49.75;13.00;;;5.90;99.90;;;;;;4953958;28;20047;-77
2024/02/02 05:26:12;;;;;;;45.55;13.32;;;5.90;99.90;;;;;;4954187;28;20027;-75
2024/02/02 05:28:38;;;;;;;44.20;13.63;;;5.90;99.90;;;;;;4936097;28;20051;-77
2024/02/02 05:31:04;;;;;;;38.85;12.90;;;5.80;99.90;;;;;;4937997;28;20481;-78
2024/02/02 05:33:29;;;;;;;36.78;13.40;;;5.90;99.90;;;;;;4954920;28;20425;-78
2024/02/02 05:35:55;;;;;;;37.75;12.82;;;5.90;99.90;;;;;;4938035;29;20034;-79
2024/02/02 05:38:20;;;;;;;40.78;12.57;;;6.00;99.90;;;;;;4955079;28;20031;-76
2024/02/02 05:40:46;;;;;;;41.40;13.40;;;5.90;99.90;;;;;;4937576;29;20055;-79
2024/02/02 05:43:12;;;;;;;44.00;13.50;;;5.90;99.90;;;;;;4937703;28;20047;-78
2024/02/02 05:45:38;;;;;;;36.42;11.75;;;5.90;99.90;;;;;;4937260;29;20119;-75
2024/02/02 05:48:03;;;;;;;47.45;13.65;;;5.90;99.90;;;;;;4954454;28;20453;-76
2024/02/02 05:50:29;;;;;;;37.42;12.18;;;5.90;99.90;;;;;;4938143;29;20031;-78
2024/02/02 05:52:55;;;;;;;46.50;13.27;;;5.90;99.90;;;;;;4954613;29;20031;-79
2024/02/02 05:55:20;;;;;;;40.88;14.27;;;5.90;99.90;;;;;;4937489;29;20040;-76
2024/02/02 05:57:46;;;;;;;38.97;14.35;;;5.90;99.90;;;;;;4953085;28;20086;-75
2024/02/02 06:00:12;;;;;;;45.53;14.00;;;5.90;99.90;;;;;;4953709;28;20043;-77
2024/02/02 06:02:38;;;;;;;49.72;14.75;;;5.90;99.90;;;;;;4936815;29;20024;-76
2024/02/02 06:05:03;;;;;;;44.53;13.93;;;5.90;99.90;;;;;;4934395;28;20047;-78
2024/02/02 06:07:29;;;;;;;53.10;14.63;;;6.00;99.90;;;;;;4935483;29;20051;-76
2024/02/02 06:09:54;;;;;;;36.08;11.77;;;6.00;99.90;;;;;;4933376;29;20047;-77
2024/02/02 06:12:20;;;;;;;40.20;14.25;;;6.00;99.90;;;;;;4935133;29;20433;-80
2024/02/02 06:14:46;;;;;;;40.50;14.80;;;6.00;99.90;;;;;;4933989;29;20611;-75
2024/02/02 06:17:11;;;;;;;48.15;15.60;;;6.00;99.90;;;;;;4933547;29;20039;-73
2024/02/02 06:19:37;;;;;;;46.45;15.00;;;6.00;99.90;;;;;;4935455;29;20036;-74
2024/02/02 06:22:03;;;;;;;36.67;11.60;;;6.00;99.90;;;;;;4934463;29;20034;-74
2024/02/02 06:24:28;;;;;;;46.72;14.60;;;6.00;99.90;;;;;;4932854;29;20040;-76
2024/02/02 06:26:54;;;;;;;41.03;14.35;;;6.10;99.90;;;;;;4929762;29;20040;-76
2024/02/02 06:29:19;;;;;;;34.40;13.43;;;6.00;99.90;;;;;;4933795;29;20056;-75
2024/02/02 06:31:45;;;;;;;51.10;14.90;;;6.10;99.90;;;;;;4926792;29;20031;-77
2024/02/02 06:34:11;;;;;;;45.97;14.35;;;6.10;99.90;;;;;;4934359;29;20028;-74
2024/02/02 06:36:36;;;;;;;45.90;15.20;;;6.10;99.90;;;;;;4934598;29;20028;-76
2024/02/02 06:39:02;;;;;;;47.78;14.23;;;6.10;99.90;;;;;;4933441;29;20032;-74
2024/02/02 06:41:28;;;;;;;45.97;14.20;;;6.10;99.90;;;;;;4933477;29;20032;-72
2024/02/02 06:43:53;;;;;;;43.03;13.77;;;6.10;99.90;;;;;;4934065;29;20079;-72
2024/02/02 06:46:19;;;;;;;41.38;14.18;;;6.10;99.90;;;;;;4935193;29;20026;-74
2024/02/02 06:48:44;;;;;;;45.55;14.85;;;6.20;99.90;;;;;;4933430;29;20024;-73
2024/02/02 06:51:10;;;;;;;43.33;13.57;;;6.10;99.90;;;;;;4933150;29;20023;-75
2024/02/02 06:53:36;;;;;;;41.10;13.18;;;6.10;99.90;;;;;;4933148;29;20035;-76
2024/02/02 06:56:08;;;;;;;37.65;10.57;;;6.20;99.90;;;;;;4930984;29;20438;-75
2024/02/02 06:58:41;;;;;;;46.63;13.18;;;6.10;99.90;;;;;;4931726;29;20028;-78
2024/02/02 07:01:10;;;;;;;44.22;13.60;;;6.20;99.90;;;;;;4932869;29;20067;-80
2024/02/02 07:03:36;;;;;;;48.17;14.13;;;6.20;99.90;;;;;;4933202;29;20031;-75
2024/02/02 07:06:05;;;;;;;45.42;15.68;;;6.10;99.90;;;;;;4934572;29;20028;-74
2024/02/02 07:08:31;;;;;;;48.47;16.55;;;6.20;99.90;;;;;;4932692;29;20059;-75
2024/02/02 07:11:45;;;;;;;42.70;13.85;;;6.20;99.90;;;;;;4934533;29;20025;-73
2024/02/02 07:14:40;;;;;;;41.43;14.40;;;6.20;99.90;;;;;;4931214;29;20063;-74
2024/02/02 07:17:33;;;;;;;45.08;14.95;;;6.20;99.90;;;;;;4924289;29;20070;-76
2024/02/02 07:19:59;;;;;;;42.25;13.88;;;6.20;99.90;;;;;;4934131;29;20713;-74
2024/02/02 07:22:41;;;;;;;46.55;15.75;;;6.20;99.90;;;;;;4934822;29;20063;-75
2024/02/02 07:25:22;;;;;;;43.85;14.68;;;6.20;99.90;;;;;;4932669;29;20115;-76
2024/02/02 07:28:23;;;;;;;37.83;13.30;;;6.20;99.90;;;;;;4933429;29;20028;-78
2024/02/02 07:30:55;;;;;;;37.92;15.20;;;6.20;99.90;;;;;;4933235;29;20035;-75
2024/02/02 07:33:27;;;;;;;47.15;15.73;;;6.30;99.90;;;;;;4936888;29;20084;-78
2024/02/02 07:35:57;;;;;;;48.83;16.15;;;6.30;99.90;;;;;;4937143;29;20036;-75
2024/02/02 07:38:37;;;;;;;40.45;13.63;;;6.30;99.90;;;;;;4936649;29;20036;-73
2024/02/02 07:41:05;;;;;;;47.35;16.73;;;6.20;99.90;;;;;;4938218;29;20031;-77
2024/02/02 07:43:33;;;;;;;35.03;13.80;;;6.30;99.90;;;;;;4936398;29;20023;-77
2024/02/02 07:46:01;;;;;;;55.78;16.23;;;6.30;99.90;;;;;;4937956;29;20027;-78
2024/02/02 07:48:27;;;;;;;50.05;15.25;;;6.30;99.90;;;;;;4938035;29;20076;-76
2024/02/02 07:50:53;;;;;;;45.15;15.43;;;6.30;99.90;;;;;;4935095;29;20032;-74
2024/02/02 07:53:19;;;;;;;48.20;15.55;;;6.30;99.90;;;;;;4935792;29;20100;-76
2024/02/02 07:55:45;;;;;;;57.10;18.90;;;6.30;99.90;;;;;;4934647;29;20031;-79
2024/02/02 07:58:10;;;;;;;41.90;15.70;;;6.30;99.90;;;;;;4935247;29;20101;-74
2024/02/02 08:00:36;;;;;;;41.60;15.80;;;6.30;99.90;;;;;;4935672;29;20084;-76
2024/02/02 08:03:01;;;;;;;52.40;16.42;;;6.30;99.90;;;;;;4933111;29;20075;-76
2024/02/02 08:05:27;;;;;;;40.00;16.13;;;6.30;99.90;;;;;;4932360;29;20036;-76
2024/02/02 08:07:53;;;;;;;56.17;18.50;;;6.30;99.90;;;;;;4933113;29;20048;-76
2024/02/02 08:10:19;;;;;;;36.08;15.88;;;6.40;99.90;;;;;;4933715;29;20075;-74
2024/02/02 08:12:44;;;;;;;51.28;17.58;;;6.40;99.90;;;;;;4932548;29;20039;-78
2024/02/02 08:15:10;;;;;;;47.60;16.58;;;6.40;99.90;;;;;;4934232;29;20055;-73
2024/02/02 08:17:36;;;;;;;41.80;15.30;;;6.40;99.90;;;;;;4933809;29;20051;-77
2024/02/02 08:20:02;;;;;;;56.60;15.13;;;6.40;99.90;;;;;;4932436;29;20054;-77
2024/02/02 08:22:27;;;;;;;48.05;15.00;;;6.40;99.90;;;;;;4935124;29;20031;-76
2024/02/02 08:24:53;;;;;;;41.72;14.50;;;6.40;99.90;;;;;;4935943;29;20056;-77
2024/02/02 08:27:19;;;;;;;44.92;14.75;;;6.40;99.90;;;;;;4935528;29;20028;-76
2024/02/02 08:29:46;;;;;;;45.58;14.13;;;6.40;99.90;;;;;;4933489;29;20028;-74
2024/02/02 08:32:13;;;;;;;59.63;15.52;;;6.50;99.90;;;;;;4935701;29;20071;-76
2024/02/02 08:34:38;;;;;;;46.25;15.32;;;6.50;99.90;;;;;;4934887;29;20024;-75
2024/02/02 08:37:04;;;;;;;46.20;15.80;;;6.50;99.90;;;;;;4936334;29;20040;-75
2024/02/02 08:39:34;;;;;;;43.88;15.27;;;6.50;99.90;;;;;;4934312;29;20087;-75
2024/02/02 08:42:01;;;;;;;38.50;13.50;;;6.50;99.90;;;;;;4933513;29;20045;-77
2024/02/02 08:44:30;;;;;;;38.60;14.30;;;6.50;99.90;;;;;;4932379;29;20028;-76
2024/02/02 08:46:57;;;;;;;40.58;11.93;;;6.50;99.90;;;;;;4934892;29;20027;-74
2024/02/02 08:49:42;;;;;;;55.67;14.77;;;6.50;99.90;;;;;;4933646;29;20478;-77
2024/02/02 08:52:12;;;;;;;62.30;17.13;;;6.50;99.90;;;;;;4934915;29;20038;-75
2024/02/02 08:54:46;;;;;;;48.10;16.08;;;6.40;99.90;;;;;;4935309;29;20087;-80
2024/02/02 08:57:44;;;;;;;46.83;16.33;;;6.50;99.90;;;;;;4937217;29;20083;-78
2024/02/02 09:00:35;;;;;;;48.60;15.63;;;6.50;99.90;;;;;;4935126;29;20043;-77
2024/02/02 09:03:16;;;;;;;50.95;14.75;;;6.40;99.90;;;;;;4931084;29;20128;-74
2024/02/02 09:05:49;;;;;;;48.35;15.50;;;6.50;99.90;;;;;;4936630;29;20028;-76
2024/02/02 09:08:34;;;;;;;42.83;15.05;;;6.50;99.90;;;;;;4936535;29;20036;-76
2024/02/02 09:10:59;;;;;;;43.60;14.32;;;6.50;99.90;;;;;;4937964;29;20038;-76
2024/02/02 09:13:30;;;;;;;53.70;15.73;;;6.60;99.90;;;;;;4955516;28;20019;-75
2024/02/02 09:15:56;;;;;;;45.88;15.32;;;6.60;99.90;;;;;;4954323;29;20039;-77
2024/02/02 09:18:36;;;;;;;51.00;15.07;;;6.60;99.90;;;;;;4954859;28;20029;-77
2024/02/02 09:21:03;;;;;;;52.10;15.30;;;6.50;99.90;;;;;;4933305;29;20132;-76
2024/02/02 09:23:32;;;;;;;38.17;12.90;;;6.60;99.90;;;;;;4952070;28;20473;-74
2024/02/02 09:25:58;;;;;;;52.70;15.20;;;6.60;99.90;;;;;;4936445;29;20036;-74
2024/02/02 09:28:23;;;;;;;43.30;13.70;;;6.50;99.90;;;;;;4953276;28;20022;-78
2024/02/02 09:30:55;;;;;;;49.53;16.13;;;6.50;99.90;;;;;;4937907;28;20126;-78
2024/02/02 09:33:30;;;;;;;45.67;15.90;;;6.60;99.90;;;;;;4955088;28;20042;-78
2024/02/02 09:35:57;;;;;;;40.95;13.18;;;6.50;99.90;;;;;;4952606;28;20023;-77
2024/02/02 09:38:23;;;;;;;47.70;15.35;;;6.60;99.90;;;;;;4950735;28;20047;-74
2024/02/02 09:41:01;;;;;;;52.08;15.43;;;6.60;99.90;;;;;;4933632;28;20050;-77
2024/02/02 09:43:37;;;;;;;45.08;15.73;;;6.60;99.90;;;;;;4935736;29;20031;-76
2024/02/02 09:46:05;;;;;;;45.42;15.25;;;6.60;99.90;;;;;;4953738;29;20027;-74
2024/02/02 09:49:00;;;;;;;45.58;16.73;;;6.70;99.90;;;;;;4937460;28;20100;-75
2024/02/02 09:51:30;;;;;;;48.58;16.60;;;6.70;99.90;;;;;;4933636;28;20055;-74
2024/02/02 09:54:19;;;;;;;47.33;14.82;;;6.70;99.90;;;;;;4935530;29;20108;-76
2024/02/02 09:56:59;;;;;;;54.63;16.30;;;6.70;99.90;;;;;;4953383;28;20040;-78
2024/02/02 09:59:52;;;;;;;47.58;16.60;;;6.70;99.90;;;;;;4952517;28;20038;-77
2024/02/02 10:02:46;;;;;;;46.45;14.20;;;6.70;99.90;;;;;;4936740;29;20024;-77
2024/02/02 10:05:27;;;;;;;53.60;16.10;;;6.70;99.90;;;;;;4952526;28;20091;-75
2024/02/02 10:08:17;;;;;;;51.80;15.57;;;6.70;99.90;;;;;;4951702;29;20094;-74
2024/02/02 10:10:53;;;;;;;43.40;14.57;;;6.80;99.90;;;;;;4952433;28;20053;-75
2024/02/02 10:13:47;;;;;;;46.47;13.90;;;6.80;99.90;;;;;;4936212;28;20027;-77
2024/02/02 10:16:25;;;;;;;49.65;15.65;;;6.80;99.90;;;;;;4953463;28;20027;-78
2024/02/02 10:19:15;;;;;;;47.17;14.95;;;6.80;99.90;;;;;;4935956;29;20032;-75
2024/02/02 10:22:08;;;;;;;44.83;14.77;;;6.90;99.90;;;;;;4951231;28;20114;-74
2024/02/02 10:24:55;;;;;;;46.90;14.88;;;6.80;99.90;;;;;;4930207;29;20028;-72
2024/02/02 10:27:51;;;;;;;54.15;14.85;;;6.90;99.90;;;;;;4953371;28;20034;-76
2024/02/02 10:30:40;;;;;;;41.88;14.10;;;6.90;99.90;;;;;;4951802;28;20039;-76
2024/02/02 10:33:14;;;;;;;43.60;13.88;;;6.90;99.90;;;;;;4951954;28;20038;-73
2024/02/02 10:35:51;;;;;;;38.97;14.35;;;6.90;99.90;;;;;;4935623;29;20123;-76
2024/02/02 10:38:32;;;;;;;50.72;13.98;;;6.90;99.90;;;;;;4935983;29;20031;-77
2024/02/02 10:41:33;;;;;;;50.17;14.93;;;6.90;99.90;;;;;;4932157;28;20044;-77
2024/02/02 10:44:12;;;;;;;44.13;14.35;;;6.90;99.90;;;;;;4948202;29;20034;-76
2024/02/02 10:46:40;;;;;;;45.45;14.50;;;7.00;99.90;;;;;;4948656;28;20046;-79
2024/02/02 10:49:36;;;;;;;45.22;13.77;;;7.00;99.90;;;;;;4952454;29;20031;-78
2024/02/02 10:52:30;;;;;;;42.78;14.13;;;7.00;99.90;;;;;;4935017;29;20408;-75
2024/02/02 10:55:30;;;;;;;34.88;12.10;;;7.10;99.90;;;;;;4952411;28;20043;-78
2024/02/02 10:58:23;;;;;;;52.47;14.68;;;7.10;99.90;;;;;;4953691;28;20074;-74
2024/02/02 11:01:22;;;;;;;49.22;13.20;;;7.10;99.90;;;;;;4936055;29;20035;-75
2024/02/02 11:04:06;;;;;;;57.40;14.45;;;7.20;99.90;;;;;;4936199;29;20032;-72
2024/02/02 11:07:27;;;;;;;35.85;13.90;;;7.20;99.90;;;;;;4933867;29;20071;-75
2024/02/02 11:09:57;;;;;;;48.58;13.63;;;7.20;99.90;;;;;;4882565;29;20093;-74
2024/02/02 11:12:49;;;;;;;40.90;13.27;;;7.30;99.90;;;;;;4949977;28;20039;-74
2024/02/02 11:15:41;;;;;;;52.30;14.10;;;7.30;99.90;;;;;;4935859;29;20038;-74
2024/02/02 11:18:25;;;;;;;43.40;13.98;;;7.30;99.90;;;;;;4952980;28;20035;-75
2024/02/02 11:21:03;;;;;;;48.45;14.48;;;7.20;99.90;;;;;;4952507;28;20543;-73
2024/02/02 11:24:01;;;;;;;44.03;14.05;;;7.30;99.90;;;;;;4934997;29;20055;-75
2024/02/02 11:26:51;;;;;;;41.67;13.70;;;7.30;99.90;;;;;;4936182;28;20038;-77
2024/02/02 11:29:42;;;;;;;47.53;12.77;;;7.30;99.90;;;;;;4919186;29;20053;-75
2024/02/02 11:32:39;;;;;;;48.50;13.77;;;7.40;99.90;;;;;;4953301;29;20023;-76
2024/02/02 11:35:19;;;;;;;51.45;14.10;;;7.40;99.90;;;;;;4933425;28;20043;-75
2024/02/02 11:38:11;;;;;;;39.10;13.35;;;7.40;99.90;;;;;;4936318;29;20027;-76
2024/02/02 11:40:38;;;;;;;38.05;12.73;;;7.50;99.90;;;;;;4952913;29;20556;-74
2024/02/02 11:43:08;;;;;;;43.97;12.93;;;7.50;99.90;;;;;;4953365;29;21858;-76
2024/02/02 11:45:39;;;;;;;41.63;12.60;;;7.50;99.90;;;;;;4952805;29;20027;-74
2024/02/02 11:48:08;;;;;;;53.50;16.77;;;7.50;99.90;;;;;;4934126;29;20042;-76
2024/02/02 11:50:42;;;;;;;52.75;13.85;;;7.50;99.90;;;;;;4934954;29;20033;-75
2024/02/02 11:53:36;;;;;;;48.00;13.85;;;7.50;99.90;;;;;;4953474;28;20039;-73
2024/02/02 11:56:08;;;;;;;43.50;12.68;;;7.50;99.90;;;;;;4952799;28;20081;-73
2024/02/02 11:58:38;;;;;;;39.92;12.88;;;7.50;99.90;;;;;;4953238;28;20054;-73
2024/02/02 12:01:26;;;;;;;34.53;11.77;;;7.60;99.90;;;;;;4952447;29;20042;-75
2024/02/02 12:04:31;;;;;;;44.53;12.27;;;7.60;99.90;;;;;;4950307;28;20047;-75
2024/02/02 12:07:32;;;;;;;;;;;7.60;99.90;;;;;;4953218;28;20043;-75
2024/02/02 12:10:04;;;;;;;48.20;12.35;;;7.70;99.90;;;;;;4862049;29;20022;-74
2024/02/02 12:12:43;;;;;;;31.80;10.65;;;7.70;99.90;;;;;;4919561;29;20039;-74
2024/02/02 12:15:09;;;;;;;40.97;12.15;;;7.70;99.90;;;;;;4952176;28;20024;-77
2024/02/02 12:17:36;;;;;;;42.33;11.82;;;7.80;99.90;;;;;;4951723;28;20027;-78
2024/02/02 12:20:07;;;;;;;39.28;12.57;;;7.80;99.90;;;;;;4938422;29;20042;-76
2024/02/02 12:22:34;;;;;;;39.38;12.32;;;7.80;99.90;;;;;;4956587;28;20015;-78
2024/02/02 12:25:00;;;;;;;43.47;13.60;;;7.80;99.90;;;;;;4956281;28;20119;-75
2024/02/02 12:27:25;;;;;;;39.53;12.65;;;7.90;99.90;;;;;;4938648;29;20026;-75
2024/02/02 12:29:51;;;;;;;39.33;12.13;;;7.80;99.90;;;;;;4953836;28;20397;-75
2024/02/02 12:32:16;;;;;;;40.35;12.35;;;7.90;99.90;;;;;;4955385;28;20056;-74
2024/02/02 12:34:42;;;;;;;42.70;12.07;;;7.90;99.90;;;;;;4935795;29;20034;-75
2024/02/02 12:37:10;;;;;;;41.92;12.77;;;7.90;99.90;;;;;;4938421;29;20454;-77
2024/02/02 12:39:37;;;;;;;48.17;13.65;;;7.90;99.90;;;;;;4955409;28;20035;-77
2024/02/02 12:42:03;;;;;;;40.40;12.38;;;7.90;99.90;;;;;;4938733;29;20030;-76
2024/02/02 12:44:30;;;;;;;41.22;12.32;;;7.90;99.90;;;;;;4953969;28;20023;-75
2024/02/02 12:46:56;;;;;;;40.17;13.00;;;7.90;99.90;;;;;;4954937;28;20038;-75
2024/02/02 12:49:22;;;;;;;38.97;12.13;;;7.90;99.90;;;;;;4938199;28;20114;-74
2024/02/02 12:51:48;;;;;;;43.30;13.57;;;7.90;99.90;;;;;;4955520;28;20028;-78
2024/02/02 12:54:15;;;;;;;41.97;12.07;;;7.90;99.90;;;;;;4938105;28;20481;-77